Austin, Texas
Traffic Map
Current Weather Conditions
Austin, Texas

34°
Feels Like: 27°
Wind Chill: 27° Ceiling:
Heat Index: 34° Visibility: 8mi
Dew Point: 25° Wind: 9mph
Humidity: 70% Direction: 20° (NNE)
Pressure: 30.33in Gusts: 0mph
Raw Report DataKATT 272104Z AUTO 02008KT 8SM 01/M04 A3033 RMK AO2 T00111039 $
Traffic Incident Summary
Active as of:
Severity:
Category:
InformationThere was an issue retrieving the traffic information for this location. Please try a different location or try again shortly.
Advertisements
Track Severe Weather on mobile